createdAt,value
2018-12-31T00:02:33.799Z,18.03
2018-12-31T00:05:01.899Z,17.10
2018-12-31T00:07:30.043Z,17.53
2018-12-31T00:09:57.934Z,17.53
2018-12-31T00:12:25.758Z,19.50
2018-12-31T00:14:53.595Z,17.43
2018-12-31T00:17:21.130Z,17.80
2018-12-31T00:19:48.960Z,18.53
2018-12-31T00:22:16.859Z,16.63
2018-12-31T00:24:44.389Z,16.37
2018-12-31T00:27:11.979Z,15.10
2018-12-31T00:29:39.494Z,16.80
2018-12-31T00:32:07.714Z,14.80
2018-12-31T00:34:35.535Z,16.90
2018-12-31T00:37:03.930Z,16.90
2018-12-31T00:39:31.572Z,16.90
2018-12-31T00:41:59.138Z,16.90
2018-12-31T00:44:26.742Z,16.97
2018-12-31T00:46:54.267Z,17.40
2018-12-31T00:49:22.431Z,17.27
2018-12-31T00:51:50.532Z,18.03
2018-12-31T00:54:18.355Z,15.13
2018-12-31T00:56:46.232Z,15.17
2018-12-31T00:59:13.774Z,18.77
2018-12-31T01:01:41.494Z,18.60
2018-12-31T01:04:09.695Z,18.27
2018-12-31T01:06:37.597Z,19.77
2018-12-31T01:09:06.343Z,17.63
2018-12-31T01:11:33.831Z,18.03
2018-12-31T01:14:01.372Z,18.57
2018-12-31T01:16:28.951Z,17.53
2018-12-31T01:18:56.459Z,17.87
2018-12-31T01:21:23.951Z,18.83
2018-12-31T01:23:52.083Z,19.07
2018-12-31T01:26:19.570Z,17.47
2018-12-31T01:28:47.350Z,18.20
2018-12-31T01:31:14.802Z,18.20
2018-12-31T01:33:42.707Z,18.63
2018-12-31T01:36:10.215Z,17.73
2018-12-31T01:38:37.736Z,18.87
2018-12-31T01:41:05.591Z,17.60
2018-12-31T01:43:33.094Z,18.40
2018-12-31T01:46:01.254Z,18.77
2018-12-31T01:48:28.798Z,15.90
2018-12-31T01:50:56.252Z,16.63
2018-12-31T01:53:24.407Z,17.77
2018-12-31T01:55:52.194Z,17.77
2018-12-31T01:58:19.672Z,18.90
2018-12-31T02:00:47.174Z,16.77
2018-12-31T02:03:14.804Z,16.53
2018-12-31T02:05:42.705Z,17.60
2018-12-31T02:08:10.263Z,17.87
2018-12-31T02:10:38.096Z,16.40
2018-12-31T02:13:05.978Z,15.70
2018-12-31T02:15:33.810Z,18.77
2018-12-31T02:18:01.999Z,14.50
2018-12-31T02:20:29.978Z,14.40
2018-12-31T02:22:58.135Z,14.93
2018-12-31T02:25:25.652Z,16.20
2018-12-31T02:27:53.164Z,15.33
2018-12-31T02:30:21.131Z,15.17
2018-12-31T02:32:48.979Z,15.37
2018-12-31T02:35:16.841Z,17.50
2018-12-31T02:37:44.730Z,17.70
2018-12-31T02:40:12.555Z,15.90
2018-12-31T02:42:40.980Z,16.57
2018-12-31T02:45:08.672Z,16.27
2018-12-31T02:47:36.444Z,17.00
2018-12-31T02:50:04.585Z,16.40
2018-12-31T02:52:32.174Z,15.90
2018-12-31T02:54:59.792Z,17.30
2018-12-31T02:57:27.572Z,17.77
2018-12-31T02:59:55.539Z,18.63
2018-12-31T03:02:23.436Z,18.50
2018-12-31T03:04:51.282Z,18.47
2018-12-31T03:07:18.830Z,17.10
2018-12-31T03:09:46.682Z,18.63
2018-12-31T03:12:14.244Z,16.53
2018-12-31T03:14:41.831Z,17.10
2018-12-31T03:17:09.346Z,16.90
2018-12-31T03:19:36.803Z,18.70
2018-12-31T03:22:04.572Z,19.37
2018-12-31T03:24:32.615Z,16.60
2018-12-31T03:27:00.150Z,16.00
2018-12-31T03:29:27.658Z,16.37
2018-12-31T03:31:55.148Z,18.13
2018-12-31T03:34:22.736Z,16.50
2018-12-31T03:36:50.254Z,17.63
2018-12-31T03:39:18.403Z,17.50
2018-12-31T03:41:46.359Z,16.30
2018-12-31T03:44:13.974Z,15.77
2018-12-31T03:46:41.506Z,15.53
2018-12-31T03:49:09.707Z,13.70
2018-12-31T03:51:37.327Z,14.40
2018-12-31T03:54:05.593Z,14.43
2018-12-31T03:56:33.528Z,13.80
2018-12-31T03:59:01.479Z,13.23
2018-12-31T04:01:29.952Z,13.70
2018-12-31T04:03:57.466Z,13.67
2018-12-31T04:06:25.985Z,15.10
2018-12-31T04:09:13.706Z,14.20
2018-12-31T04:11:42.225Z,15.67
2018-12-31T04:14:10.083Z,15.20
2018-12-31T04:16:39.088Z,13.53
2018-12-31T04:19:07.523Z,14.97
2018-12-31T04:21:36.160Z,14.50
2018-12-31T04:24:03.990Z,15.60
2018-12-31T04:26:32.199Z,15.60
2018-12-31T04:29:00.806Z,14.67
2018-12-31T04:31:28.716Z,13.40
2018-12-31T04:33:57.014Z,15.17
2018-12-31T04:36:24.863Z,14.60
2018-12-31T04:38:53.485Z,13.90
2018-12-31T04:41:21.437Z,13.20
2018-12-31T04:43:49.290Z,13.60
2018-12-31T04:46:17.251Z,17.17
2018-12-31T04:48:45.153Z,13.60
2018-12-31T04:51:13.362Z,14.40
2018-12-31T04:53:41.617Z,14.40
2018-12-31T04:56:09.697Z,14.60
2018-12-31T04:58:38.309Z,15.60
2018-12-31T05:01:06.222Z,15.03
2018-12-31T05:03:34.255Z,15.27
2018-12-31T05:06:02.022Z,15.33
2018-12-31T05:08:29.646Z,14.70
2018-12-31T05:10:57.268Z,15.40
2018-12-31T05:13:24.839Z,15.00
2018-12-31T05:15:52.916Z,14.43
2018-12-31T05:18:21.114Z,12.63
2018-12-31T05:20:49.425Z,15.33
2018-12-31T05:23:17.906Z,15.03
2018-12-31T05:25:45.824Z,14.93
2018-12-31T05:28:13.890Z,13.63
2018-12-31T05:30:41.444Z,14.50
2018-12-31T05:33:09.267Z,14.20
2018-12-31T05:35:37.487Z,15.60
2018-12-31T05:38:05.400Z,14.23
2018-12-31T05:40:33.750Z,13.97
2018-12-31T05:43:01.512Z,15.53
2018-12-31T05:45:30.278Z,15.80
2018-12-31T05:48:00.406Z,13.23
2018-12-31T05:50:28.173Z,12.77
2018-12-31T05:52:56.354Z,14.63
2018-12-31T05:55:24.331Z,14.60
2018-12-31T05:57:52.244Z,13.90
2018-12-31T06:00:19.754Z,13.87
2018-12-31T06:02:48.288Z,13.20
2018-12-31T06:05:15.864Z,14.30
2018-12-31T06:07:44.446Z,14.60
2018-12-31T06:10:14.450Z,16.17
2018-12-31T06:12:42.434Z,14.73
2018-12-31T06:15:11.223Z,14.37
2018-12-31T06:17:39.262Z,13.70
2018-12-31T06:20:08.360Z,13.83
2018-12-31T06:22:36.274Z,14.40
2018-12-31T06:25:04.186Z,13.87
2018-12-31T06:27:32.127Z,14.50
2018-12-31T06:30:01.043Z,13.60
2018-12-31T06:32:30.411Z,14.77
2018-12-31T06:34:58.558Z,13.43
2018-12-31T06:37:26.192Z,13.70
2018-12-31T06:39:54.343Z,12.77
2018-12-31T06:42:21.862Z,13.00
2018-12-31T06:44:50.252Z,13.30
2018-12-31T06:47:19.338Z,14.30
2018-12-31T06:49:47.922Z,13.77
2018-12-31T06:52:15.551Z,14.63
2018-12-31T06:54:43.324Z,12.57
2018-12-31T06:57:13.778Z,14.50
2018-12-31T06:59:41.919Z,12.47
2018-12-31T07:02:10.419Z,12.97
2018-12-31T07:04:39.106Z,14.03
2018-12-31T07:07:06.971Z,12.87
2018-12-31T07:09:35.954Z,13.30
2018-12-31T07:12:03.814Z,13.80
2018-12-31T07:14:34.087Z,14.33
2018-12-31T07:17:02.510Z,13.97
2018-12-31T07:19:33.476Z,14.73
2018-12-31T07:22:03.847Z,12.23
2018-12-31T07:24:32.435Z,13.83
2018-12-31T07:27:00.322Z,12.40
2018-12-31T07:29:37.244Z,13.63
2018-12-31T07:32:05.482Z,12.67
2018-12-31T07:34:33.962Z,13.20
2018-12-31T07:37:02.709Z,11.80
2018-12-31T07:39:31.874Z,13.70
2018-12-31T07:42:00.158Z,11.90
2018-12-31T07:44:28.042Z,12.27
2018-12-31T07:46:56.048Z,12.20
2018-12-31T07:49:24.999Z,11.53
2018-12-31T07:51:53.142Z,11.57
2018-12-31T07:54:21.957Z,12.40
2018-12-31T07:56:49.943Z,12.03
2018-12-31T07:59:17.831Z,12.33
2018-12-31T08:01:45.663Z,11.27
2018-12-31T08:04:13.282Z,11.27
2018-12-31T08:06:41.596Z,12.70
2018-12-31T08:09:09.894Z,12.03
2018-12-31T08:11:38.182Z,10.50
2018-12-31T08:14:06.723Z,11.13
2018-12-31T08:16:34.630Z,12.83
2018-12-31T08:19:02.904Z,10.33
2018-12-31T08:21:30.418Z,9.37
2018-12-31T08:23:58.179Z,12.00
2018-12-31T08:26:27.096Z,10.33
2018-12-31T08:28:54.994Z,11.47
2018-12-31T08:31:22.506Z,10.27
2018-12-31T08:33:50.414Z,10.40
2018-12-31T08:36:18.235Z,9.90
2018-12-31T08:38:46.603Z,9.53
2018-12-31T08:41:15.981Z,9.70
2018-12-31T08:43:45.664Z,10.13
2018-12-31T08:46:13.518Z,9.80
2018-12-31T08:48:41.356Z,10.30
2018-12-31T08:51:09.721Z,11.00
2018-12-31T08:53:37.366Z,12.43
2018-12-31T08:56:05.034Z,10.33
2018-12-31T08:58:33.642Z,9.87
2018-12-31T09:01:01.147Z,11.97
2018-12-31T09:03:28.935Z,11.20
2018-12-31T09:05:57.161Z,12.43
2018-12-31T09:08:26.097Z,11.37
2018-12-31T09:10:54.004Z,11.10
2018-12-31T09:13:22.010Z,14.03
2018-12-31T09:15:51.135Z,11.80
2018-12-31T09:18:18.775Z,12.23
2018-12-31T09:20:46.328Z,11.90
2018-12-31T09:23:13.871Z,11.20
2018-12-31T09:25:42.647Z,11.50
2018-12-31T09:28:10.606Z,12.10
2018-12-31T09:30:38.993Z,13.50
2018-12-31T09:33:06.823Z,11.80
2018-12-31T09:35:35.407Z,14.30
2018-12-31T09:38:06.895Z,12.40
2018-12-31T09:40:37.038Z,12.10
2018-12-31T09:43:06.299Z,11.60
2018-12-31T09:45:36.277Z,10.80
2018-12-31T09:48:07.803Z,12.30
2018-12-31T09:50:37.898Z,11.10
2018-12-31T09:53:06.026Z,14.23
2018-12-31T09:55:35.518Z,11.60
2018-12-31T09:58:05.822Z,12.87
2018-12-31T10:00:34.599Z,11.77
2018-12-31T10:03:05.227Z,11.37
2018-12-31T10:05:33.048Z,10.30
2018-12-31T10:08:01.841Z,12.53
2018-12-31T10:10:30.315Z,10.60
2018-12-31T10:12:59.614Z,11.20
2018-12-31T10:15:27.487Z,9.30
2018-12-31T10:18:01.035Z,10.50
2018-12-31T10:20:31.991Z,11.57
2018-12-31T10:23:06.675Z,10.50
2018-12-31T10:25:37.907Z,11.40
2018-12-31T10:28:06.474Z,9.67
2018-12-31T10:30:36.236Z,11.20
2018-12-31T10:33:05.158Z,11.03
2018-12-31T10:35:33.802Z,9.90
2018-12-31T10:38:01.749Z,10.73
2018-12-31T10:40:29.947Z,11.90
2018-12-31T10:42:58.083Z,10.10
2018-12-31T10:45:29.666Z,12.20
2018-12-31T10:47:58.698Z,10.30
2018-12-31T10:50:30.148Z,10.10
2018-12-31T10:52:57.772Z,11.83
2018-12-31T10:55:27.598Z,9.20
2018-12-31T10:57:57.290Z,10.00
2018-12-31T11:00:26.020Z,10.00
2018-12-31T11:02:54.035Z,9.70
2018-12-31T11:05:22.713Z,9.73
2018-12-31T11:07:51.850Z,11.00
2018-12-31T11:10:20.011Z,9.80
2018-12-31T11:12:47.818Z,11.23
2018-12-31T11:15:15.471Z,11.43
2018-12-31T11:17:44.096Z,10.10
2018-12-31T11:20:20.172Z,10.73
2018-12-31T11:22:51.734Z,12.30
2018-12-31T11:25:20.719Z,9.93
2018-12-31T11:27:49.311Z,10.67
2018-12-31T11:30:19.539Z,11.67
2018-12-31T11:32:47.358Z,12.13
2018-12-31T11:35:16.252Z,10.80
2018-12-31T11:37:46.599Z,12.93
2018-12-31T11:40:15.160Z,12.30
2018-12-31T11:42:45.583Z,12.77
2018-12-31T11:45:16.407Z,13.10
2018-12-31T11:47:59.722Z,12.10
2018-12-31T11:50:30.803Z,13.47
2018-12-31T11:53:02.215Z,12.30
2018-12-31T11:55:30.402Z,13.03
2018-12-31T11:58:03.238Z,11.83
2018-12-31T12:00:32.008Z,11.50
2018-12-31T12:03:01.434Z,11.80
2018-12-31T12:05:32.804Z,11.53
2018-12-31T12:08:05.212Z,12.27
2018-12-31T12:10:32.829Z,11.00
2018-12-31T12:13:04.458Z,13.10
2018-12-31T12:15:33.802Z,13.07
2018-12-31T12:18:03.283Z,11.40
2018-12-31T12:20:36.443Z,13.07
2018-12-31T12:23:06.667Z,12.13
2018-12-31T12:25:34.774Z,12.00
2018-12-31T12:28:05.192Z,12.47
2018-12-31T12:30:34.663Z,12.60
2018-12-31T12:33:03.071Z,14.93
2018-12-31T12:35:31.026Z,14.70
2018-12-31T12:38:17.002Z,13.80
2018-12-31T12:40:52.778Z,12.73
2018-12-31T12:43:21.494Z,12.70
2018-12-31T12:45:59.341Z,13.27
2018-12-31T12:48:27.936Z,12.13
2018-12-31T12:50:58.735Z,13.77
2018-12-31T12:53:27.879Z,13.83
2018-12-31T12:55:57.259Z,12.30
2018-12-31T12:58:29.901Z,12.30
2018-12-31T13:00:59.826Z,12.87
2018-12-31T13:03:27.884Z,12.47
2018-12-31T13:05:58.794Z,12.73
2018-12-31T13:08:27.394Z,12.70
2018-12-31T13:10:55.550Z,13.60
2018-12-31T13:13:23.150Z,12.77
2018-12-31T13:15:52.691Z,12.13
2018-12-31T13:18:21.930Z,11.30
2018-12-31T13:20:50.299Z,12.17
2018-12-31T13:23:18.670Z,10.70
2018-12-31T13:25:46.283Z,10.33
2018-12-31T13:28:14.160Z,11.87
2018-12-31T13:30:43.478Z,11.23
2018-12-31T13:33:11.449Z,10.60
2018-12-31T13:35:39.627Z,11.03
2018-12-31T13:38:08.384Z,13.70
2018-12-31T13:40:38.203Z,15.97
2018-12-31T13:43:06.454Z,12.23
2018-12-31T13:45:34.402Z,11.97
2018-12-31T13:48:02.250Z,13.30
2018-12-31T13:50:31.753Z,13.33
2018-12-31T13:52:59.871Z,12.27
2018-12-31T13:55:28.510Z,13.27
2018-12-31T13:57:57.294Z,15.50
2018-12-31T14:00:24.818Z,17.23
2018-12-31T14:02:54.091Z,14.40
2018-12-31T14:05:22.471Z,12.90
2018-12-31T14:07:52.986Z,12.37
2018-12-31T14:10:21.884Z,12.53
2018-12-31T14:12:50.301Z,11.10
2018-12-31T14:15:18.418Z,12.37
2018-12-31T14:17:46.023Z,12.23
2018-12-31T14:20:13.629Z,11.10
2018-12-31T14:22:41.240Z,11.73
2018-12-31T14:25:09.060Z,11.83
2018-12-31T14:27:36.911Z,12.70
2018-12-31T14:30:09.144Z,11.60
2018-12-31T14:32:37.927Z,12.50
2018-12-31T14:35:05.561Z,12.97
2018-12-31T14:37:33.543Z,12.80
2018-12-31T14:40:01.982Z,11.87
2018-12-31T14:42:29.662Z,12.13
2018-12-31T14:44:57.607Z,13.70
2018-12-31T14:47:25.663Z,13.43
2018-12-31T14:49:53.588Z,12.93
2018-12-31T14:52:21.526Z,12.57
2018-12-31T14:54:49.340Z,13.07
2018-12-31T14:57:17.266Z,12.43
2018-12-31T14:59:45.102Z,11.43
2018-12-31T15:02:12.617Z,11.97
2018-12-31T15:04:40.515Z,11.70
2018-12-31T15:07:08.218Z,11.77
2018-12-31T15:09:36.097Z,12.77
2018-12-31T15:12:04.555Z,13.53
2018-12-31T15:14:32.457Z,13.53
2018-12-31T15:17:00.054Z,14.37
2018-12-31T15:19:28.112Z,12.80
2018-12-31T15:21:55.986Z,16.03
2018-12-31T15:24:27.232Z,13.47
2018-12-31T15:26:56.910Z,14.20
2018-12-31T15:29:25.367Z,12.37
2018-12-31T15:31:53.697Z,14.73
2018-12-31T15:34:21.664Z,14.03
2018-12-31T15:36:49.251Z,13.87
2018-12-31T15:39:16.871Z,13.13
2018-12-31T15:41:45.300Z,14.00
2018-12-31T15:44:13.233Z,13.67
2018-12-31T15:46:41.256Z,13.43
2018-12-31T15:49:08.870Z,14.93
2018-12-31T15:51:36.427Z,14.90
2018-12-31T15:54:04.398Z,16.37
2018-12-31T15:56:32.326Z,14.40
2018-12-31T15:58:59.899Z,12.73
2018-12-31T16:01:27.984Z,14.00
2018-12-31T16:03:55.951Z,14.80
2018-12-31T16:06:23.917Z,14.43
2018-12-31T16:08:51.528Z,15.40
2018-12-31T16:11:21.553Z,14.67
2018-12-31T16:13:49.877Z,14.43
2018-12-31T16:16:17.505Z,14.23
2018-12-31T16:18:45.739Z,15.90
2018-12-31T16:21:13.996Z,15.43
2018-12-31T16:23:41.923Z,15.70
2018-12-31T16:26:09.496Z,17.10
2018-12-31T16:28:37.360Z,15.13
2018-12-31T16:31:04.954Z,15.70
2018-12-31T16:33:32.856Z,14.47
2018-12-31T16:36:00.719Z,16.87
2018-12-31T16:38:28.378Z,14.77
2018-12-31T16:40:56.200Z,16.57
2018-12-31T16:43:23.827Z,15.20
2018-12-31T16:45:51.347Z,17.27
2018-12-31T16:48:18.953Z,16.70
2018-12-31T16:50:46.794Z,17.43
2018-12-31T16:53:14.721Z,18.10
2018-12-31T16:55:42.604Z,17.50
2018-12-31T16:58:10.928Z,16.03
2018-12-31T17:00:39.106Z,17.93
2018-12-31T17:03:07.300Z,19.23
2018-12-31T17:05:35.190Z,17.90
2018-12-31T17:08:03.059Z,20.57
2018-12-31T17:10:30.703Z,20.50
2018-12-31T17:13:00.325Z,21.30
2018-12-31T17:15:27.915Z,20.73
2018-12-31T17:17:56.898Z,19.70
2018-12-31T17:20:24.926Z,19.00
2018-12-31T17:22:52.939Z,37.00
2018-12-31T17:25:20.884Z,34.77
2018-12-31T17:27:48.779Z,29.30
2018-12-31T17:30:16.466Z,28.10
2018-12-31T17:32:44.443Z,25.50
2018-12-31T17:35:12.415Z,23.67
2018-12-31T17:37:40.627Z,22.20
2018-12-31T17:40:08.344Z,23.10
2018-12-31T17:42:36.815Z,22.87
2018-12-31T17:45:04.680Z,23.20
2018-12-31T17:47:32.258Z,21.10
2018-12-31T17:49:59.930Z,19.07
2018-12-31T17:52:27.559Z,18.10
2018-12-31T17:54:55.286Z,20.27
2018-12-31T17:57:22.859Z,20.30
2018-12-31T17:59:50.806Z,20.30
2018-12-31T18:02:19.551Z,18.20
2018-12-31T18:04:47.121Z,19.60
2018-12-31T18:07:14.744Z,18.83
2018-12-31T18:09:42.713Z,17.63
2018-12-31T18:12:10.770Z,20.10
2018-12-31T18:14:38.373Z,21.67
2018-12-31T18:17:06.420Z,19.80
2018-12-31T18:19:34.475Z,20.30
2018-12-31T18:22:02.425Z,17.87
2018-12-31T18:24:30.496Z,18.20
2018-12-31T18:26:58.804Z,17.50
2018-12-31T18:29:26.838Z,19.47
2018-12-31T18:31:54.749Z,18.23
2018-12-31T18:34:22.718Z,19.13
2018-12-31T18:36:50.894Z,17.07
2018-12-31T18:39:19.307Z,17.00
2018-12-31T18:41:46.910Z,17.10
2018-12-31T18:44:14.785Z,17.80
2018-12-31T18:46:42.932Z,19.40
2018-12-31T18:49:11.832Z,17.30
2018-12-31T18:51:39.669Z,18.77
2018-12-31T18:54:07.574Z,19.23
2018-12-31T18:56:35.437Z,18.60
2018-12-31T18:59:03.895Z,17.87
2018-12-31T19:01:31.519Z,18.30
2018-12-31T19:03:59.931Z,17.63
2018-12-31T19:06:27.824Z,19.60
2018-12-31T19:08:56.053Z,17.63
2018-12-31T19:11:24.492Z,20.90
2018-12-31T19:13:52.559Z,21.87
2018-12-31T19:16:20.522Z,20.20
2018-12-31T19:18:49.188Z,20.47
2018-12-31T19:21:17.394Z,19.00
2018-12-31T19:23:45.469Z,18.43
2018-12-31T19:26:14.704Z,20.43
2018-12-31T19:28:42.206Z,20.17
2018-12-31T19:31:10.578Z,20.47
2018-12-31T19:33:38.464Z,20.53
2018-12-31T19:36:07.463Z,19.80
2018-12-31T19:38:35.914Z,18.00
2018-12-31T19:41:03.576Z,19.47
2018-12-31T19:43:31.817Z,19.43
2018-12-31T19:49:47.230Z,18.27
2018-12-31T19:52:14.902Z,22.97
2018-12-31T19:54:42.485Z,20.93
2018-12-31T19:57:10.397Z,21.13
2018-12-31T19:59:38.626Z,20.40
2018-12-31T20:02:06.236Z,21.50
2018-12-31T20:04:34.135Z,17.83
2018-12-31T20:07:03.547Z,20.37
2018-12-31T20:09:31.135Z,20.03
2018-12-31T20:11:58.731Z,19.37
2018-12-31T20:14:26.555Z,21.07
2018-12-31T20:16:54.244Z,20.77
2018-12-31T20:19:21.813Z,21.70
2018-12-31T20:21:50.046Z,20.20
2018-12-31T20:24:17.677Z,21.90
2018-12-31T20:26:45.284Z,20.87
2018-12-31T20:29:13.035Z,208.50
2018-12-31T20:31:40.623Z,46.53
2018-12-31T20:34:08.379Z,51.90
2018-12-31T20:36:36.346Z,22.87
2018-12-31T20:39:05.449Z,22.30
2018-12-31T20:41:33.357Z,20.03
2018-12-31T20:44:01.214Z,21.93
2018-12-31T20:46:28.863Z,22.37
2018-12-31T20:48:57.080Z,21.67
2018-12-31T20:51:24.699Z,22.13
2018-12-31T20:53:52.650Z,24.67
2018-12-31T20:56:20.275Z,21.80
2018-12-31T20:58:48.160Z,24.80
2018-12-31T21:01:16.109Z,22.33
2018-12-31T21:03:44.417Z,29.50
2018-12-31T21:06:12.013Z,21.20
2018-12-31T21:08:39.630Z,21.27
2018-12-31T21:11:07.634Z,21.53
2018-12-31T21:13:35.587Z,24.53
2018-12-31T21:16:03.239Z,21.70
2018-12-31T21:18:30.850Z,22.53
2018-12-31T21:20:58.440Z,25.40
2018-12-31T21:23:26.332Z,25.00
2018-12-31T21:25:53.923Z,23.40
2018-12-31T21:28:21.843Z,23.90
2018-12-31T21:30:49.417Z,23.03
2018-12-31T21:33:18.111Z,22.80
2018-12-31T21:35:46.083Z,21.50
2018-12-31T21:38:13.941Z,23.40
2018-12-31T21:40:41.889Z,21.50
2018-12-31T21:43:09.482Z,24.03
2018-12-31T21:45:37.653Z,25.37
2018-12-31T21:48:05.752Z,24.77
2018-12-31T21:50:34.102Z,26.07
2018-12-31T21:53:01.686Z,23.53
2018-12-31T21:55:29.214Z,23.87
2018-12-31T21:57:57.162Z,21.33
2018-12-31T22:00:25.330Z,25.20
2018-12-31T22:02:56.982Z,23.10
2018-12-31T22:05:22.699Z,23.87
2018-12-31T22:07:50.435Z,26.60
2018-12-31T22:10:18.018Z,33.07
2018-12-31T22:12:45.558Z,32.40
2018-12-31T22:15:13.094Z,25.43
2018-12-31T22:17:41.101Z,23.03
2018-12-31T22:20:09.730Z,23.70
2018-12-31T22:22:37.692Z,22.30
2018-12-31T22:25:05.845Z,23.10
2018-12-31T22:27:33.738Z,24.67
2018-12-31T22:30:01.614Z,24.43
2018-12-31T22:32:29.921Z,23.90
2018-12-31T22:34:57.500Z,34.90
2018-12-31T22:37:26.006Z,30.17
2018-12-31T22:39:53.943Z,29.80
2018-12-31T22:42:21.830Z,26.50
2018-12-31T22:44:49.456Z,27.23
2018-12-31T22:47:17.666Z,23.83
2018-12-31T22:49:45.260Z,21.80
2018-12-31T22:52:13.273Z,22.80
2018-12-31T22:54:41.104Z,23.57
2018-12-31T22:57:08.760Z,20.47
2018-12-31T22:59:36.789Z,29.07
2018-12-31T23:02:04.696Z,59.70
2018-12-31T23:04:32.295Z,114.20
2018-12-31T23:07:03.327Z,417.40
2018-12-31T23:09:31.667Z,397.07
2018-12-31T23:11:59.314Z,589.60
2018-12-31T23:14:27.942Z,619.33
2018-12-31T23:17:07.328Z,347.37
2018-12-31T23:19:41.678Z,289.70
2018-12-31T23:22:06.367Z,367.40
2018-12-31T23:24:33.986Z,312.07
2018-12-31T23:27:01.603Z,219.30
2018-12-31T23:29:29.610Z,149.80
2018-12-31T23:31:57.200Z,122.03
2018-12-31T23:34:25.093Z,104.60
2018-12-31T23:36:52.705Z,109.70
2018-12-31T23:39:20.370Z,96.93
2018-12-31T23:41:47.976Z,111.17
2018-12-31T23:44:15.833Z,126.47
2018-12-31T23:46:44.130Z,130.77
2018-12-31T23:49:11.926Z,149.97
2018-12-31T23:51:39.539Z,157.40
2018-12-31T23:54:07.763Z,159.33
2018-12-31T23:56:35.715Z,147.70
2018-12-31T23:59:03.388Z,140.90
